Time;durP1;ratioP1;P1;durP2;ratioP2;P2;SDS_P1;SDS_P2;PMS_P1;PMS_P2;Temp;Humidity;BMP_temperature;BMP_pressure;BME280_temperature;BME280_humidity;BME280_pressure;Samples;Min_cycle;Max_cycle;Signal;HPM_P1;HPM_P2
2022/01/07 00:00:08;;;;;;;;;;;21.70;34.70;;;;;;685999;28;949;-88
2022/01/07 00:00:28;;;;;;;;;;;21.70;34.70;;;;;;685682;28;1378;-90
2022/01/07 00:00:49;;;;;;;;;;;21.70;34.70;;;;;;685568;28;1209;-90
2022/01/07 00:01:09;;;;;;;;;;;21.60;34.80;;;;;;685856;28;838;-90
2022/01/07 00:01:35;;;;;;;;;;;21.70;34.70;;;;;;685893;28;800;-90
2022/01/07 00:02:31;;;;;;;;;;;21.70;34.70;;;;;;685793;28;843;-87
2022/01/07 00:08:40;;;;;;;;;;;21.60;34.50;;;;;;679951;29;1425;-85
2022/01/07 00:09:00;;;;;;;;;;;21.60;34.60;;;;;;679997;29;1270;-89
2022/01/07 00:09:21;;;;;;;;;;;21.60;34.80;;;;;;678095;29;925;-90
2022/01/07 00:09:41;;;;;;;;;;;21.60;34.60;;;;;;677760;29;811;-90
2022/01/07 00:10:03;;;;;;;;;;;21.60;34.70;;;;;;677797;29;894;-89
2022/01/07 00:10:23;;;;;;;;;;;21.60;34.60;;;;;;678022;29;1275;-91
2022/01/07 00:10:44;;;;;;;;;;;21.60;34.80;;;;;;677771;29;919;-90
2022/01/07 00:11:04;;;;;;;;;;;21.60;34.80;;;;;;678104;29;791;-89
2022/01/07 00:11:25;;;;;;;;;;;21.60;34.60;;;;;;680405;29;941;-79
2022/01/07 00:11:45;;;;;;;;;;;21.60;34.60;;;;;;680415;29;859;-86
2022/01/07 00:12:06;;;;;;;;;;;21.60;34.90;;;;;;680428;29;993;-82
2022/01/07 00:12:27;;;;;;;;;;;21.60;34.90;;;;;;680317;29;866;-88
2022/01/07 00:12:48;;;;;;;;;;;21.60;34.90;;;;;;680271;29;949;-88
2022/01/07 00:13:09;;;;;;;;;;;21.60;34.80;;;;;;680238;29;878;-87
2022/01/07 00:13:29;;;;;;;;;;;21.60;34.80;;;;;;677504;29;1324;-86
2022/01/07 00:13:50;;;;;;;;;;;21.60;34.60;;;;;;677794;29;776;-88
2022/01/07 00:14:10;;;;;;;;;;;21.60;34.50;;;;;;677617;29;950;-88
2022/01/07 00:14:31;;;;;;;;;;;21.60;34.60;;;;;;677689;29;922;-87
2022/01/07 00:14:52;;;;;;;;;;;21.60;34.60;;;;;;677634;29;937;-88
2022/01/07 00:15:12;;;;;;;;;;;21.60;34.60;;;;;;678074;29;886;-88
2022/01/07 00:15:33;;;;;;;;;;;21.60;34.60;;;;;;680324;29;819;-88
2022/01/07 00:15:54;;;;;;;;;;;21.60;34.60;;;;;;677584;29;949;-87
2022/01/07 00:16:16;;;;;;;;;;;21.60;34.60;;;;;;677821;29;962;-87
2022/01/07 00:16:37;;;;;;;;;;;21.60;34.70;;;;;;677664;29;910;-88
2022/01/07 00:16:57;;;;;;;;;;;21.60;34.80;;;;;;677643;29;780;-86
2022/01/07 00:17:18;;;;;;;;;;;21.60;34.60;;;;;;677711;29;856;-89
2022/01/07 00:17:39;;;;;;;;;;;21.60;34.50;;;;;;678128;29;854;-88
2022/01/07 00:17:59;;;;;;;;;;;21.60;34.60;;;;;;680281;29;803;-87
2022/01/07 00:18:20;;;;;;;;;;;21.60;34.60;;;;;;680324;29;1959;-85
2022/01/07 00:18:43;;;;;;;;;;;21.60;34.60;;;;;;680413;29;951;-88
2022/01/07 00:19:04;;;;;;;;;;;21.60;34.60;;;;;;680254;29;827;-85
2022/01/07 00:19:24;;;;;;;;;;;21.60;34.60;;;;;;680275;29;787;-86
2022/01/07 00:19:45;;;;;;;;;;;21.60;34.60;;;;;;680347;29;934;-79
2022/01/07 00:20:09;;;;;;;;;;;21.60;34.50;;;;;;680302;29;827;-87
2022/01/07 00:20:29;;;;;;;;;;;21.50;34.60;;;;;;680253;29;858;-89
2022/01/07 00:20:51;;;;;;;;;;;21.50;34.50;;;;;;680381;29;842;-88
2022/01/07 00:21:12;;;;;;;;;;;21.50;34.50;;;;;;680387;29;890;-88
2022/01/07 00:21:32;;;;;;;;;;;21.50;34.50;;;;;;680397;29;858;-87
2022/01/07 00:21:53;;;;;;;;;;;21.50;34.50;;;;;;680287;29;984;-87
2022/01/07 00:22:13;;;;;;;;;;;21.50;34.50;;;;;;680200;29;1745;-87
2022/01/07 00:22:35;;;;;;;;;;;21.50;34.50;;;;;;680306;29;826;-88
2022/01/07 00:22:55;;;;;;;;;;;21.50;34.60;;;;;;680204;29;1044;-80
2022/01/07 00:23:16;;;;;;;;;;;21.50;34.50;;;;;;680482;29;827;-85
2022/01/07 00:23:37;;;;;;;;;;;21.50;34.50;;;;;;680277;29;815;-86
2022/01/07 00:23:57;;;;;;;;;;;21.60;34.60;;;;;;680270;29;807;-86
2022/01/07 00:24:18;;;;;;;;;;;21.50;34.40;;;;;;680365;29;875;-88
2022/01/07 00:24:38;;;;;;;;;;;21.60;34.40;;;;;;680350;29;843;-88
2022/01/07 00:24:59;;;;;;;;;;;21.50;34.30;;;;;;677568;29;1392;-86
2022/01/07 00:25:21;;;;;;;;;;;21.50;34.20;;;;;;677751;29;947;-88
2022/01/07 00:25:41;;;;;;;;;;;21.50;34.30;;;;;;677790;29;823;-87
2022/01/07 00:26:02;;;;;;;;;;;21.50;34.50;;;;;;677522;29;816;-85
2022/01/07 00:26:23;;;;;;;;;;;21.50;34.30;;;;;;677698;29;898;-87
2022/01/07 00:26:43;;;;;;;;;;;21.50;34.40;;;;;;678080;29;1476;-84
2022/01/07 00:27:04;;;;;;;;;;;21.50;34.40;;;;;;680259;29;831;-87
2022/01/07 00:27:25;;;;;;;;;;;21.50;34.30;;;;;;680151;29;1325;-88
2022/01/07 00:27:45;;;;;;;;;;;21.50;34.30;;;;;;680371;29;894;-81
2022/01/07 00:28:06;;;;;;;;;;;21.50;34.40;;;;;;680198;29;878;-87
2022/01/07 00:28:26;;;;;;;;;;;21.50;34.50;;;;;;679960;29;911;-87
2022/01/07 00:28:47;;;;;;;;;;;21.50;34.40;;;;;;677800;29;799;-87
2022/01/07 00:29:08;;;;;;;;;;;21.50;34.50;;;;;;677864;29;840;-85
2022/01/07 00:29:28;;;;;;;;;;;21.50;34.30;;;;;;680361;29;799;-87
2022/01/07 00:29:49;;;;;;;;;;;21.50;34.40;;;;;;680098;29;787;-88
2022/01/07 00:30:10;;;;;;;;;;;21.50;34.30;;;;;;680209;29;850;-87
2022/01/07 00:30:33;;;;;;;;;;;21.50;34.30;;;;;;680252;29;894;-87
2022/01/07 00:30:53;;;;;;;;;;;21.50;34.30;;;;;;680397;29;897;-86
2022/01/07 00:31:14;;;;;;;;;;;21.50;34.40;;;;;;677578;29;1585;-86
2022/01/07 00:31:34;;;;;;;;;;;21.50;34.40;;;;;;677606;29;951;-87
2022/01/07 00:31:55;;;;;;;;;;;21.50;34.30;;;;;;677647;29;965;-79
2022/01/07 00:32:18;;;;;;;;;;;21.50;34.20;;;;;;677625;29;1197;-87
2022/01/07 00:32:39;;;;;;;;;;;21.50;34.30;;;;;;677579;29;1581;-86
2022/01/07 00:33:00;;;;;;;;;;;21.50;34.20;;;;;;678156;29;979;-86
2022/01/07 00:33:20;;;;;;;;;;;21.50;34.20;;;;;;680283;29;847;-88
2022/01/07 00:33:41;;;;;;;;;;;21.50;34.20;;;;;;680332;29;871;-87
2022/01/07 00:34:01;;;;;;;;;;;21.50;34.10;;;;;;679618;29;839;-87
2022/01/07 00:34:22;;;;;;;;;;;21.50;34.10;;;;;;677607;29;910;-88
2022/01/07 00:34:43;;;;;;;;;;;21.50;34.20;;;;;;677661;29;914;-86
2022/01/07 00:35:04;;;;;;;;;;;21.50;34.20;;;;;;677834;29;811;-85
2022/01/07 00:35:24;;;;;;;;;;;21.50;34.10;;;;;;680166;29;1134;-85
2022/01/07 00:35:46;;;;;;;;;;;21.50;34.10;;;;;;680416;29;815;-87
2022/01/07 00:36:07;;;;;;;;;;;21.50;34.20;;;;;;680309;29;811;-86
2022/01/07 00:36:27;;;;;;;;;;;21.50;34.20;;;;;;680231;29;835;-87
2022/01/07 00:36:48;;;;;;;;;;;21.50;34.10;;;;;;680264;29;1321;-87
2022/01/07 00:37:08;;;;;;;;;;;21.50;34.20;;;;;;680279;29;954;-87
2022/01/07 00:37:29;;;;;;;;;;;21.50;34.50;;;;;;680261;29;858;-85
2022/01/07 00:37:50;;;;;;;;;;;21.50;34.50;;;;;;682055;28;963;-87
2022/01/07 00:38:10;;;;;;;;;;;21.50;34.20;;;;;;688229;28;847;-88
2022/01/07 00:38:32;;;;;;;;;;;21.50;34.30;;;;;;687953;28;1954;-87
2022/01/07 00:38:53;;;;;;;;;;;21.50;34.30;;;;;;685848;28;835;-86
2022/01/07 00:39:13;;;;;;;;;;;21.50;34.20;;;;;;685826;28;858;-87
2022/01/07 00:39:34;;;;;;;;;;;21.50;34.10;;;;;;685703;28;985;-86
2022/01/07 00:39:55;;;;;;;;;;;21.50;34.00;;;;;;685652;28;855;-87
2022/01/07 00:40:17;;;;;;;;;;;21.50;34.20;;;;;;685700;28;895;-84
2022/01/07 00:40:38;;;;;;;;;;;21.50;34.30;;;;;;682953;28;1420;-86
2022/01/07 00:40:59;;;;;;;;;;;21.50;34.40;;;;;;683581;28;792;-88
2022/01/07 00:41:19;;;;;;;;;;;21.50;34.40;;;;;;685695;28;927;-87
2022/01/07 00:41:40;;;;;;;;;;;21.50;34.40;;;;;;685651;28;795;-85
2022/01/07 00:42:01;;;;;;;;;;;21.50;34.50;;;;;;685591;28;949;-86
2022/01/07 00:42:21;;;;;;;;;;;21.50;34.50;;;;;;685548;28;1459;-86
2022/01/07 00:42:42;;;;;;;;;;;21.50;34.50;;;;;;685807;28;965;-87
2022/01/07 00:43:02;;;;;;;;;;;21.50;34.20;;;;;;685602;28;1039;-87
2022/01/07 00:43:23;;;;;;;;;;;21.50;34.20;;;;;;685652;28;1314;-87
2022/01/07 00:43:44;;;;;;;;;;;21.50;34.20;;;;;;685728;28;854;-87
2022/01/07 00:44:04;;;;;;;;;;;21.50;34.20;;;;;;685728;28;1008;-87
2022/01/07 00:44:25;;;;;;;;;;;21.50;34.10;;;;;;685815;28;826;-85
2022/01/07 00:44:45;;;;;;;;;;;21.50;34.00;;;;;;686051;28;811;-84
2022/01/07 00:45:06;;;;;;;;;;;21.50;34.10;;;;;;685797;28;816;-85
2022/01/07 00:45:27;;;;;;;;;;;21.50;34.10;;;;;;685904;28;803;-85
2022/01/07 00:45:48;;;;;;;;;;;21.50;34.20;;;;;;685907;28;926;-85
2022/01/07 00:46:08;;;;;;;;;;;21.50;34.20;;;;;;685816;28;788;-86
2022/01/07 00:46:29;;;;;;;;;;;21.50;34.00;;;;;;685829;28;827;-86
2022/01/07 00:46:50;;;;;;;;;;;21.50;34.10;;;;;;685996;28;890;-85
2022/01/07 00:47:11;;;;;;;;;;;21.50;34.10;;;;;;685815;28;787;-85
2022/01/07 00:47:32;;;;;;;;;;;21.50;34.10;;;;;;685809;28;913;-81
2022/01/07 00:47:53;;;;;;;;;;;21.50;34.10;;;;;;685817;28;937;-87
2022/01/07 00:48:14;;;;;;;;;;;21.50;34.00;;;;;;685897;28;941;-88
2022/01/07 00:48:34;;;;;;;;;;;21.50;34.10;;;;;;685832;28;787;-86
2022/01/07 00:48:55;;;;;;;;;;;21.50;34.20;;;;;;685911;28;842;-87
2022/01/07 00:49:21;;;;;;;;;;;21.50;34.20;;;;;;685534;28;1196;-82
2022/01/07 00:49:41;;;;;;;;;;;21.50;34.20;;;;;;685717;28;822;-84
2022/01/07 00:50:02;;;;;;;;;;;21.50;34.20;;;;;;685581;28;1321;-87
2022/01/07 00:50:25;;;;;;;;;;;21.50;34.10;;;;;;685620;28;855;-86
2022/01/07 00:50:45;;;;;;;;;;;21.50;34.10;;;;;;685780;28;847;-82
2022/01/07 00:51:06;;;;;;;;;;;21.50;34.00;;;;;;685754;28;878;-87
2022/01/07 00:51:26;;;;;;;;;;;21.50;34.10;;;;;;685798;28;835;-86
2022/01/07 00:51:48;;;;;;;;;;;21.50;34.20;;;;;;685912;28;866;-87
2022/01/07 00:52:08;;;;;;;;;;;21.50;34.00;;;;;;685869;28;819;-87
2022/01/07 00:52:29;;;;;;;;;;;21.50;34.10;;;;;;685644;28;1463;-87
2022/01/07 00:52:49;;;;;;;;;;;21.50;34.30;;;;;;685597;28;1082;-87
2022/01/07 00:53:10;;;;;;;;;;;21.50;34.10;;;;;;685631;28;839;-87
2022/01/07 00:53:30;;;;;;;;;;;21.50;34.00;;;;;;685588;28;894;-86
2022/01/07 00:53:51;;;;;;;;;;;21.50;34.10;;;;;;685616;28;886;-86
2022/01/07 00:54:11;;;;;;;;;;;21.50;34.10;;;;;;685751;28;842;-84
2022/01/07 00:54:32;;;;;;;;;;;21.50;34.30;;;;;;685879;28;830;-87
2022/01/07 00:54:53;;;;;;;;;;;21.50;34.20;;;;;;685805;28;906;-87
2022/01/07 00:55:14;;;;;;;;;;;21.50;34.00;;;;;;686033;28;854;-86
2022/01/07 00:55:36;;;;;;;;;;;21.50;33.70;;;;;;685724;28;1039;-86
2022/01/07 00:55:57;;;;;;;;;;;21.50;33.80;;;;;;685948;28;878;-86
2022/01/07 00:56:17;;;;;;;;;;;21.50;34.00;;;;;;685895;28;791;-86
2022/01/07 00:56:38;;;;;;;;;;;21.50;34.10;;;;;;685680;28;1419;-86
2022/01/07 00:56:58;;;;;;;;;;;21.50;33.70;;;;;;685901;28;941;-87
2022/01/07 00:57:19;;;;;;;;;;;21.50;33.60;;;;;;685926;28;835;-87
2022/01/07 00:57:40;;;;;;;;;;;21.60;33.90;;;;;;685728;28;906;-85
2022/01/07 00:58:00;;;;;;;;;;;21.50;34.00;;;;;;685827;28;890;-88
2022/01/07 00:58:21;;;;;;;;;;;21.50;34.00;;;;;;685773;28;1961;-85
2022/01/07 00:58:41;;;;;;;;;;;21.50;34.00;;;;;;685914;28;842;-88
2022/01/07 00:59:02;;;;;;;;;;;21.60;34.00;;;;;;685896;28;902;-87
2022/01/07 00:59:22;;;;;;;;;;;21.60;33.70;;;;;;685798;28;842;-88
2022/01/07 00:59:46;;;;;;;;;;;21.60;33.80;;;;;;685859;28;894;-87
2022/01/07 01:00:11;;;;;;;;;;;21.60;33.80;;;;;;685801;28;784;-88
2022/01/07 01:00:31;;;;;;;;;;;21.60;34.10;;;;;;685746;28;902;-84
2022/01/07 01:00:52;;;;;;;;;;;21.60;34.20;;;;;;685470;28;1110;-87
2022/01/07 01:01:12;;;;;;;;;;;21.60;34.10;;;;;;685787;28;938;-88
2022/01/07 01:01:33;;;;;;;;;;;21.60;34.00;;;;;;685544;28;1426;-87
2022/01/07 01:01:54;;;;;;;;;;;21.60;34.20;;;;;;685525;28;870;-88
2022/01/07 01:02:14;;;;;;;;;;;21.60;33.90;;;;;;685732;28;969;-86
2022/01/07 01:02:35;;;;;;;;;;;21.60;34.30;;;;;;685724;28;846;-88
2022/01/07 01:02:56;;;;;;;;;;;21.60;34.10;;;;;;685674;28;882;-86
2022/01/07 01:03:17;;;;;;;;;;;21.60;33.60;;;;;;685674;28;842;-86
2022/01/07 01:03:37;;;;;;;;;;;21.60;33.50;;;;;;685797;28;783;-87
2022/01/07 01:03:58;;;;;;;;;;;21.60;33.60;;;;;;685842;28;906;-86
2022/01/07 01:04:18;;;;;;;;;;;21.60;33.70;;;;;;685874;28;799;-86
2022/01/07 01:04:39;;;;;;;;;;;21.60;33.60;;;;;;685714;28;1362;-87
2022/01/07 01:05:00;;;;;;;;;;;21.60;33.40;;;;;;685904;28;875;-87
2022/01/07 01:05:21;;;;;;;;;;;21.60;33.50;;;;;;685866;28;930;-85
2022/01/07 01:05:44;;;;;;;;;;;21.60;33.60;;;;;;685859;28;878;-88
2022/01/07 01:06:05;;;;;;;;;;;21.60;33.30;;;;;;685752;28;859;-88
2022/01/07 01:06:25;;;;;;;;;;;21.60;33.30;;;;;;685711;28;975;-85
2022/01/07 01:06:46;;;;;;;;;;;21.60;33.20;;;;;;685946;28;895;-87
2022/01/07 01:07:07;;;;;;;;;;;21.60;33.30;;;;;;685725;28;883;-88
2022/01/07 01:07:29;;;;;;;;;;;21.60;33.20;;;;;;685783;28;1078;-88
2022/01/07 01:07:49;;;;;;;;;;;21.60;33.20;;;;;;685834;28;882;-87
2022/01/07 01:08:10;;;;;;;;;;;21.60;33.30;;;;;;685782;28;850;-86
2022/01/07 01:08:31;;;;;;;;;;;21.60;33.40;;;;;;685789;28;866;-87
2022/01/07 01:08:51;;;;;;;;;;;21.60;33.10;;;;;;685269;28;1370;-85
2022/01/07 01:09:12;;;;;;;;;;;21.60;33.50;;;;;;685648;28;1316;-87
2022/01/07 01:09:33;;;;;;;;;;;21.60;33.40;;;;;;685661;28;846;-87
2022/01/07 01:09:54;;;;;;;;;;;21.60;33.20;;;;;;685530;28;956;-87
2022/01/07 01:10:15;;;;;;;;;;;21.70;33.60;;;;;;685667;28;783;-89
2022/01/07 01:10:36;;;;;;;;;;;21.60;33.10;;;;;;685629;28;831;-84
2022/01/07 01:10:56;;;;;;;;;;;21.60;33.00;;;;;;685620;28;888;-87
2022/01/07 01:11:17;;;;;;;;;;;21.60;32.90;;;;;;685632;28;949;-87
2022/01/07 01:11:37;;;;;;;;;;;21.60;33.00;;;;;;685574;28;874;-86
2022/01/07 01:12:00;;;;;;;;;;;21.60;33.20;;;;;;685965;28;918;-87
2022/01/07 01:12:22;;;;;;;;;;;21.60;33.20;;;;;;685771;28;803;-86
2022/01/07 01:12:43;;;;;;;;;;;21.60;33.10;;;;;;685816;28;795;-88
2022/01/07 01:13:04;;;;;;;;;;;21.60;32.80;;;;;;685813;28;839;-84
2022/01/07 01:13:26;;;;;;;;;;;21.60;33.00;;;;;;685830;28;863;-88
2022/01/07 01:13:46;;;;;;;;;;;21.60;33.00;;;;;;685816;28;819;-87
2022/01/07 01:14:07;;;;;;;;;;;21.60;33.10;;;;;;685834;28;842;-82
2022/01/07 01:14:29;;;;;;;;;;;21.60;33.40;;;;;;685758;28;973;-89
2022/01/07 01:15:28;;;;;;;;;;;21.60;33.10;;;;;;685894;28;594;-89
2022/01/07 01:15:49;;;;;;;;;;;21.60;33.10;;;;;;685909;28;875;-89
2022/01/07 01:16:09;;;;;;;;;;;21.60;33.00;;;;;;685834;28;822;-90
2022/01/07 01:16:30;;;;;;;;;;;21.60;33.00;;;;;;685790;28;883;-88
2022/01/07 01:16:51;;;;;;;;;;;21.60;33.00;;;;;;685881;28;907;-87
2022/01/07 01:17:12;;;;;;;;;;;21.60;32.90;;;;;;685964;28;854;-86
2022/01/07 01:17:33;;;;;;;;;;;21.60;32.90;;;;;;685869;28;893;-88
2022/01/07 01:17:55;;;;;;;;;;;21.70;33.00;;;;;;685912;28;835;-85
2022/01/07 01:18:15;;;;;;;;;;;21.60;32.90;;;;;;685827;28;1977;-79
2022/01/07 01:18:36;;;;;;;;;;;21.60;32.80;;;;;;685724;28;891;-88
2022/01/07 01:18:57;;;;;;;;;;;21.60;32.90;;;;;;685867;28;791;-88
2022/01/07 01:19:17;;;;;;;;;;;21.60;33.10;;;;;;685796;28;926;-88
2022/01/07 01:19:38;;;;;;;;;;;21.60;32.80;;;;;;685800;28;803;-87
2022/01/07 01:20:00;;;;;;;;;;;21.60;32.70;;;;;;685856;28;784;-88
2022/01/07 01:20:21;;;;;;;;;;;21.60;32.40;;;;;;685739;28;1448;-80
2022/01/07 01:20:41;;;;;;;;;;;21.60;32.50;;;;;;685798;28;906;-84
2022/01/07 01:21:02;;;;;;;;;;;21.60;32.50;;;;;;685473;28;839;-88
2022/01/07 01:21:22;;;;;;;;;;;21.60;32.40;;;;;;685514;28;1111;-89
2022/01/07 01:21:43;;;;;;;;;;;21.60;32.40;;;;;;685323;28;1268;-90
2022/01/07 01:22:04;;;;;;;;;;;21.60;32.60;;;;;;685569;28;838;-89
2022/01/07 01:22:25;;;;;;;;;;;21.60;32.50;;;;;;685466;28;831;-89
2022/01/07 01:22:45;;;;;;;;;;;21.60;32.50;;;;;;685740;28;807;-88
2022/01/07 01:23:06;;;;;;;;;;;21.60;32.60;;;;;;685599;28;950;-81
2022/01/07 01:23:27;;;;;;;;;;;21.60;32.50;;;;;;685764;28;811;-88
2022/01/07 01:23:48;;;;;;;;;;;21.60;32.50;;;;;;685873;28;866;-88
2022/01/07 01:24:11;;;;;;;;;;;21.60;32.80;;;;;;685800;28;902;-89
2022/01/07 01:24:32;;;;;;;;;;;21.50;32.60;;;;;;685819;28;881;-85
2022/01/07 01:24:55;;;;;;;;;;;21.60;33.90;;;;;;685760;28;839;-90
2022/01/07 01:25:16;;;;;;;;;;;21.50;32.70;;;;;;685995;28;874;-81
2022/01/07 01:25:37;;;;;;;;;;;21.60;32.90;;;;;;685702;28;1524;-83
2022/01/07 01:25:57;;;;;;;;;;;21.50;32.70;;;;;;685757;28;887;-85
2022/01/07 01:26:18;;;;;;;;;;;21.50;32.80;;;;;;685905;28;902;-87
2022/01/07 01:26:39;;;;;;;;;;;21.50;32.70;;;;;;685856;28;803;-87
2022/01/07 01:26:59;;;;;;;;;;;21.50;33.00;;;;;;685686;28;873;-88
2022/01/07 01:27:20;;;;;;;;;;;21.50;32.90;;;;;;685946;28;799;-88
2022/01/07 01:27:40;;;;;;;;;;;21.50;32.70;;;;;;685778;28;795;-84
2022/01/07 01:28:01;;;;;;;;;;;21.50;32.70;;;;;;685751;28;791;-86
2022/01/07 01:28:22;;;;;;;;;;;21.50;32.80;;;;;;685676;28;839;-85
2022/01/07 01:28:42;;;;;;;;;;;21.50;32.80;;;;;;685879;28;783;-86
2022/01/07 01:29:03;;;;;;;;;;;21.50;32.80;;;;;;685795;28;795;-88
2022/01/07 01:29:23;;;;;;;;;;;21.50;32.80;;;;;;685867;28;878;-87
2022/01/07 01:29:44;;;;;;;;;;;21.50;32.90;;;;;;685764;28;1352;-86
2022/01/07 01:30:05;;;;;;;;;;;21.50;32.80;;;;;;685730;28;890;-87
2022/01/07 01:30:32;;;;;;;;;;;21.50;33.10;;;;;;685667;28;930;-87
2022/01/07 01:30:53;;;;;;;;;;;21.50;32.90;;;;;;685777;28;858;-89
2022/01/07 01:31:16;;;;;;;;;;;21.50;32.80;;;;;;685808;28;854;-88
2022/01/07 01:31:36;;;;;;;;;;;21.40;32.90;;;;;;685545;28;1217;-88
2022/01/07 01:31:57;;;;;;;;;;;21.40;32.70;;;;;;685674;28;942;-86
2022/01/07 01:32:17;;;;;;;;;;;21.40;32.80;;;;;;685662;28;843;-86
2022/01/07 01:32:38;;;;;;;;;;;21.40;32.90;;;;;;685545;28;997;-88
2022/01/07 01:32:59;;;;;;;;;;;21.40;32.80;;;;;;685449;28;942;-87
2022/01/07 01:33:19;;;;;;;;;;;21.40;32.70;;;;;;685697;28;1001;-87
2022/01/07 01:33:40;;;;;;;;;;;21.40;32.50;;;;;;685851;28;791;-87
2022/01/07 01:34:00;;;;;;;;;;;21.40;32.90;;;;;;685739;28;854;-86
2022/01/07 01:34:21;;;;;;;;;;;21.40;33.00;;;;;;685703;28;906;-83
2022/01/07 01:34:42;;;;;;;;;;;21.40;33.00;;;;;;685849;28;787;-86
2022/01/07 01:35:03;;;;;;;;;;;21.40;33.10;;;;;;685755;28;783;-86
2022/01/07 01:35:24;;;;;;;;;;;21.40;32.80;;;;;;685681;28;897;-86
2022/01/07 01:36:10;;;;;;;;;;;21.40;34.00;;;;;;685881;28;791;-85
2022/01/07 01:36:31;;;;;;;;;;;21.40;33.10;;;;;;685273;28;1165;-85
2022/01/07 01:36:52;;;;;;;;;;;21.40;33.20;;;;;;685498;28;894;-88
2022/01/07 01:37:12;;;;;;;;;;;21.40;33.00;;;;;;685560;28;937;-87
2022/01/07 01:37:33;;;;;;;;;;;21.40;33.10;;;;;;685405;28;1008;-88
2022/01/07 01:37:54;;;;;;;;;;;21.40;32.90;;;;;;685453;28;847;-87
2022/01/07 01:38:14;;;;;;;;;;;21.40;33.00;;;;;;685505;28;887;-88
2022/01/07 01:38:35;;;;;;;;;;;21.40;33.00;;;;;;685502;28;831;-86
2022/01/07 01:38:56;;;;;;;;;;;21.40;33.00;;;;;;685380;28;998;-83
2022/01/07 01:39:17;;;;;;;;;;;21.40;32.90;;;;;;685762;28;823;-80
2022/01/07 01:39:37;;;;;;;;;;;21.40;33.00;;;;;;685375;28;771;-84
2022/01/07 01:39:58;;;;;;;;;;;21.40;33.10;;;;;;685466;28;930;-81
2022/01/07 01:40:19;;;;;;;;;;;21.40;33.00;;;;;;685592;28;874;-83
2022/01/07 01:40:40;;;;;;;;;;;21.40;32.90;;;;;;685512;28;894;-87
2022/01/07 01:41:00;;;;;;;;;;;21.40;33.00;;;;;;685424;28;819;-89
2022/01/07 01:41:21;;;;;;;;;;;21.40;33.10;;;;;;685367;28;1436;-78
2022/01/07 01:41:42;;;;;;;;;;;21.40;33.10;;;;;;685463;28;925;-86
2022/01/07 01:42:03;;;;;;;;;;;21.40;33.10;;;;;;685788;28;878;-90
2022/01/07 01:42:24;;;;;;;;;;;21.40;33.10;;;;;;685781;28;1100;-87
2022/01/07 01:42:45;;;;;;;;;;;21.40;33.10;;;;;;686150;28;799;-85
2022/01/07 01:43:06;;;;;;;;;;;21.30;33.10;;;;;;683150;28;1118;-87
2022/01/07 01:43:26;;;;;;;;;;;21.30;33.00;;;;;;683222;29;1314;-85
2022/01/07 01:43:49;;;;;;;;;;;21.40;33.10;;;;;;683486;29;795;-90
2022/01/07 01:44:10;;;;;;;;;;;21.40;33.10;;;;;;683314;29;819;-90
2022/01/07 01:44:30;;;;;;;;;;;21.40;33.20;;;;;;683252;29;808;-89
2022/01/07 01:44:51;;;;;;;;;;;21.40;33.30;;;;;;683804;28;910;-81
2022/01/07 01:45:15;;;;;;;;;;;21.40;33.20;;;;;;683315;29;1356;-89
2022/01/07 01:45:35;;;;;;;;;;;21.40;33.20;;;;;;683354;29;811;-82
2022/01/07 01:45:56;;;;;;;;;;;21.40;33.00;;;;;;683240;29;800;-86
2022/01/07 01:46:17;;;;;;;;;;;21.30;33.00;;;;;;683309;29;998;-88
2022/01/07 01:46:37;;;;;;;;;;;21.30;33.00;;;;;;683280;29;1041;-89
2022/01/07 01:46:58;;;;;;;;;;;21.40;33.00;;;;;;684078;28;949;-91
2022/01/07 01:47:19;;;;;;;;;;;21.30;33.10;;;;;;686038;28;791;-90
2022/01/07 01:47:39;;;;;;;;;;;21.30;33.00;;;;;;685992;28;976;-91
2022/01/07 01:48:00;;;;;;;;;;;21.30;33.10;;;;;;685953;28;882;-89
2022/01/07 01:48:20;;;;;;;;;;;21.30;33.00;;;;;;686288;28;1325;-91
2022/01/07 01:48:41;;;;;;;;;;;21.30;33.10;;;;;;685967;28;1008;-88
2022/01/07 01:49:03;;;;;;;;;;;21.30;33.00;;;;;;686115;28;906;-89
2022/01/07 01:49:24;;;;;;;;;;;21.30;33.00;;;;;;685999;28;891;-84
2022/01/07 01:49:44;;;;;;;;;;;21.30;33.00;;;;;;685998;28;847;-89
2022/01/07 01:50:05;;;;;;;;;;;21.30;33.00;;;;;;685958;28;775;-87
2022/01/07 01:50:26;;;;;;;;;;;21.30;33.10;;;;;;686142;28;958;-79
2022/01/07 01:50:47;;;;;;;;;;;21.20;32.80;;;;;;686232;28;787;-87
2022/01/07 01:51:07;;;;;;;;;;;21.20;33.00;;;;;;685940;28;799;-86
2022/01/07 01:51:28;;;;;;;;;;;21.20;33.20;;;;;;685943;28;945;-86
2022/01/07 01:51:49;;;;;;;;;;;21.20;33.20;;;;;;685985;28;930;-87
2022/01/07 01:52:09;;;;;;;;;;;21.20;33.10;;;;;;685901;28;915;-89
2022/01/07 01:52:30;;;;;;;;;;;21.20;33.20;;;;;;683204;29;1511;-91
2022/01/07 01:52:56;;;;;;;;;;;21.20;33.20;;;;;;683372;29;966;-86
2022/01/07 01:53:17;;;;;;;;;;;21.20;33.10;;;;;;683312;28;835;-87
2022/01/07 01:53:38;;;;;;;;;;;21.20;33.20;;;;;;683183;28;1571;-88
2022/01/07 01:53:58;;;;;;;;;;;21.20;33.30;;;;;;683206;28;969;-88
2022/01/07 01:54:22;;;;;;;;;;;21.20;33.30;;;;;;683307;29;910;-89
2022/01/07 01:54:51;;;;;;;;;;;21.20;33.40;;;;;;683379;29;815;-82
2022/01/07 01:55:13;;;;;;;;;;;21.20;33.30;;;;;;683384;29;1025;-89
2022/01/07 01:55:34;;;;;;;;;;;21.20;33.30;;;;;;685225;28;823;-88
2022/01/07 01:55:54;;;;;;;;;;;21.20;33.30;;;;;;685984;28;925;-86
2022/01/07 01:56:17;;;;;;;;;;;21.20;33.30;;;;;;686172;28;795;-89
2022/01/07 01:56:41;;;;;;;;;;;21.20;33.40;;;;;;685968;28;847;-90
2022/01/07 01:57:04;;;;;;;;;;;21.20;33.50;;;;;;686037;28;869;-91
2022/01/07 01:57:25;;;;;;;;;;;21.20;33.40;;;;;;683224;28;937;-85
2022/01/07 01:57:50;;;;;;;;;;;21.30;33.40;;;;;;683436;29;838;-85
2022/01/07 01:58:17;;;;;;;;;;;21.20;33.50;;;;;;683338;28;1391;-88
2022/01/07 01:58:38;;;;;;;;;;;21.20;33.40;;;;;;683282;29;1231;-85
2022/01/07 01:58:58;;;;;;;;;;;21.20;33.30;;;;;;683341;29;834;-85
2022/01/07 01:59:23;;;;;;;;;;;21.20;33.40;;;;;;683361;29;886;-82
2022/01/07 01:59:43;;;;;;;;;;;21.20;33.30;;;;;;683294;28;865;-88
2022/01/07 02:00:05;;;;;;;;;;;21.20;33.40;;;;;;684854;28;830;-88
2022/01/07 02:00:28;;;;;;;;;;;21.20;33.40;;;;;;685855;28;1262;-87
2022/01/07 02:01:01;;;;;;;;;;;21.20;33.40;;;;;;685948;28;1158;-85
2022/01/07 02:01:24;;;;;;;;;;;21.20;33.40;;;;;;686022;28;838;-84
2022/01/07 02:01:51;;;;;;;;;;;21.30;33.50;;;;;;685963;28;1130;-90
2022/01/07 02:02:14;;;;;;;;;;;21.20;33.50;;;;;;686014;28;971;-88
2022/01/07 02:02:35;;;;;;;;;;;21.30;33.60;;;;;;685941;28;869;-88
2022/01/07 02:02:55;;;;;;;;;;;21.20;33.50;;;;;;685939;28;877;-79
2022/01/07 02:03:22;;;;;;;;;;;21.20;33.50;;;;;;686112;28;894;-87
2022/01/07 02:03:42;;;;;;;;;;;21.20;33.40;;;;;;683983;28;830;-87
2022/01/07 02:04:15;;;;;;;;;;;21.20;33.20;;;;;;684713;28;846;-89
2022/01/07 02:04:41;;;;;;;;;;;21.10;33.00;;;;;;685880;28;810;-86
2022/01/07 02:05:02;;;;;;;;;;;21.20;33.50;;;;;;685869;28;1444;-89
2022/01/07 02:05:23;;;;;;;;;;;21.20;33.50;;;;;;685988;28;810;-87
2022/01/07 02:05:45;;;;;;;;;;;21.20;33.50;;;;;;683420;29;811;-88
2022/01/07 02:06:05;;;;;;;;;;;21.20;33.20;;;;;;683206;29;882;-78
2022/01/07 02:06:26;;;;;;;;;;;21.20;33.30;;;;;;683329;29;883;-85
2022/01/07 02:06:48;;;;;;;;;;;21.20;33.50;;;;;;683322;29;954;-93
2022/01/07 02:07:10;;;;;;;;;;;21.10;33.40;;;;;;683237;28;890;-89
2022/01/07 02:07:35;;;;;;;;;;;21.20;33.20;;;;;;683927;28;823;-85
2022/01/07 02:07:55;;;;;;;;;;;21.20;33.10;;;;;;685928;28;898;-80
2022/01/07 02:08:16;;;;;;;;;;;21.10;33.10;;;;;;685951;28;953;-86
2022/01/07 02:08:37;;;;;;;;;;;21.10;33.10;;;;;;685925;28;914;-84
2022/01/07 02:08:57;;;;;;;;;;;21.10;33.00;;;;;;685715;28;1185;-80
2022/01/07 02:09:25;;;;;;;;;;;21.10;32.90;;;;;;685904;28;1086;-80
2022/01/07 02:09:45;;;;;;;;;;;21.10;33.00;;;;;;686004;28;834;-80
2022/01/07 02:10:08;;;;;;;;;;;21.10;33.50;;;;;;685900;28;941;-89
2022/01/07 02:10:28;;;;;;;;;;;21.10;34.00;;;;;;685758;28;1291;-80
2022/01/07 02:10:49;;;;;;;;;;;21.10;34.30;;;;;;686035;28;783;-79
2022/01/07 02:11:14;;;;;;;;;;;21.10;34.00;;;;;;685841;28;894;-83
2022/01/07 02:11:35;;;;;;;;;;;21.10;34.50;;;;;;683171;29;1136;-88
2022/01/07 02:11:57;;;;;;;;;;;21.10;34.90;;;;;;683040;29;1314;-87
2022/01/07 02:12:18;;;;;;;;;;;21.10;35.00;;;;;;683287;29;901;-80
2022/01/07 02:12:39;;;;;;;;;;;21.10;34.90;;;;;;683251;29;822;-81
2022/01/07 02:13:00;;;;;;;;;;;21.10;34.90;;;;;;683190;29;1179;-95
2022/01/07 02:13:20;;;;;;;;;;;21.10;34.70;;;;;;684128;28;918;-89
2022/01/07 02:13:46;;;;;;;;;;;21.10;34.30;;;;;;685387;28;914;-89
2022/01/07 02:14:07;;;;;;;;;;;21.10;34.30;;;;;;681484;29;1293;-82
2022/01/07 02:14:28;;;;;;;;;;;21.20;34.30;;;;;;683518;28;1139;-89
2022/01/07 02:14:52;;;;;;;;;;;21.10;34.30;;;;;;686135;28;846;-81
2022/01/07 02:15:23;;;;;;;;;;;21.10;34.30;;;;;;686106;28;807;-93
2022/01/07 02:15:43;;;;;;;;;;;21.10;34.10;;;;;;686099;28;1400;-86
2022/01/07 02:16:04;;;;;;;;;;;21.20;34.20;;;;;;686077;28;857;-83